sensor_id;sensor_type;location;lat;lon;timestamp;P1;durP1;ratioP1;P2;durP2;ratioP2
41721;SDS011;27407;24.142;-110.310;2023-10-13T00:00:29;23.40;;;3.10;;
41721;SDS011;27407;24.142;-110.310;2023-10-13T00:03:16;19.65;;;3.65;;
41721;SDS011;27407;24.142;-110.310;2023-10-13T00:05:44;18.40;;;2.67;;
41721;SDS011;27407;24.142;-110.310;2023-10-13T00:08:11;66.38;;;7.35;;
41721;SDS011;27407;24.142;-110.310;2023-10-13T00:10:38;14.48;;;2.20;;
41721;SDS011;27407;24.142;-110.310;2023-10-13T00:13:05;11.38;;;2.83;;
41721;SDS011;27407;24.142;-110.310;2023-10-13T00:15:46;16.33;;;3.00;;
41721;SDS011;27407;24.142;-110.310;2023-10-13T00:18:27;7.57;;;2.25;;
41721;SDS011;27407;24.142;-110.310;2023-10-13T00:20:59;11.32;;;2.13;;
41721;SDS011;27407;24.142;-110.310;2023-10-13T00:23:40;24.45;;;3.35;;
41721;SDS011;27407;24.142;-110.310;2023-10-13T00:26:30;16.67;;;2.60;;
41721;SDS011;27407;24.142;-110.310;2023-10-13T00:29:02;12.57;;;2.33;;
41721;SDS011;27407;24.142;-110.310;2023-10-13T00:31:39;35.45;;;4.47;;
41721;SDS011;27407;24.142;-110.310;2023-10-13T00:34:11;19.33;;;2.95;;
41721;SDS011;27407;24.142;-110.310;2023-10-13T00:37:04;28.70;;;3.08;;
41721;SDS011;27407;24.142;-110.310;2023-10-13T00:39:51;36.78;;;3.85;;
41721;SDS011;27407;24.142;-110.310;2023-10-13T00:42:22;51.25;;;4.93;;
41721;SDS011;27407;24.142;-110.310;2023-10-13T00:45:11;19.67;;;2.75;;
41721;SDS011;27407;24.142;-110.310;2023-10-13T00:47:42;21.85;;;3.17;;
41721;SDS011;27407;24.142;-110.310;2023-10-13T00:50:22;13.93;;;2.10;;
41721;SDS011;27407;24.142;-110.310;2023-10-13T00:52:49;18.73;;;2.63;;
41721;SDS011;27407;24.142;-110.310;2023-10-13T00:55:16;17.65;;;2.25;;
41721;SDS011;27407;24.142;-110.310;2023-10-13T00:57:53;41.63;;;4.35;;
41721;SDS011;27407;24.142;-110.310;2023-10-13T01:00:25;17.48;;;2.75;;
41721;SDS011;27407;24.142;-110.310;2023-10-13T01:02:54;28.23;;;3.55;;
41721;SDS011;27407;24.142;-110.310;2023-10-13T01:05:39;28.88;;;3.78;;
41721;SDS011;27407;24.142;-110.310;2023-10-13T01:08:07;30.10;;;4.18;;
41721;SDS011;27407;24.142;-110.310;2023-10-13T01:10:37;53.30;;;5.88;;
41721;SDS011;27407;24.142;-110.310;2023-10-13T01:13:06;19.27;;;3.83;;
41721;SDS011;27407;24.142;-110.310;2023-10-13T01:15:33;25.35;;;2.92;;
41721;SDS011;27407;24.142;-110.310;2023-10-13T01:18:09;32.00;;;3.40;;
41721;SDS011;27407;24.142;-110.310;2023-10-13T01:20:38;17.40;;;3.38;;
41721;SDS011;27407;24.142;-110.310;2023-10-13T01:23:12;37.08;;;4.38;;
41721;SDS011;27407;24.142;-110.310;2023-10-13T01:25:50;27.02;;;3.88;;
41721;SDS011;27407;24.142;-110.310;2023-10-13T01:28:19;26.08;;;3.63;;
41721;SDS011;27407;24.142;-110.310;2023-10-13T01:30:47;23.27;;;4.32;;
41721;SDS011;27407;24.142;-110.310;2023-10-13T01:33:17;16.45;;;3.17;;
41721;SDS011;27407;24.142;-110.310;2023-10-13T01:35:57;22.40;;;3.10;;
41721;SDS011;27407;24.142;-110.310;2023-10-13T01:38:32;42.85;;;4.65;;
41721;SDS011;27407;24.142;-110.310;2023-10-13T01:40:59;33.78;;;3.55;;
41721;SDS011;27407;24.142;-110.310;2023-10-13T01:43:26;33.10;;;4.35;;
41721;SDS011;27407;24.142;-110.310;2023-10-13T01:45:53;31.08;;;3.53;;
41721;SDS011;27407;24.142;-110.310;2023-10-13T01:48:20;50.20;;;5.28;;
41721;SDS011;27407;24.142;-110.310;2023-10-13T01:50:46;19.60;;;3.45;;
41721;SDS011;27407;24.142;-110.310;2023-10-13T01:53:18;25.50;;;3.35;;
41721;SDS011;27407;24.142;-110.310;2023-10-13T01:55:45;18.83;;;3.22;;
41721;SDS011;27407;24.142;-110.310;2023-10-13T01:58:14;20.73;;;2.80;;
41721;SDS011;27407;24.142;-110.310;2023-10-13T02:00:42;49.22;;;5.68;;
41721;SDS011;27407;24.142;-110.310;2023-10-13T02:03:09;43.10;;;5.57;;
41721;SDS011;27407;24.142;-110.310;2023-10-13T02:08:22;24.15;;;3.80;;
41721;SDS011;27407;24.142;-110.310;2023-10-13T02:10:56;18.77;;;3.28;;
41721;SDS011;27407;24.142;-110.310;2023-10-13T02:13:26;22.88;;;3.72;;
41721;SDS011;27407;24.142;-110.310;2023-10-13T02:15:57;29.52;;;4.32;;
41721;SDS011;27407;24.142;-110.310;2023-10-13T02:18:29;17.48;;;3.40;;
41721;SDS011;27407;24.142;-110.310;2023-10-13T02:21:08;18.90;;;3.40;;
41721;SDS011;27407;24.142;-110.310;2023-10-13T02:23:39;17.35;;;3.40;;
41721;SDS011;27407;24.142;-110.310;2023-10-13T02:26:25;24.88;;;3.67;;
41721;SDS011;27407;24.142;-110.310;2023-10-13T02:29:02;20.90;;;2.83;;
41721;SDS011;27407;24.142;-110.310;2023-10-13T02:31:34;25.63;;;3.33;;
41721;SDS011;27407;24.142;-110.310;2023-10-13T02:34:02;24.42;;;3.83;;
41721;SDS011;27407;24.142;-110.310;2023-10-13T02:36:37;21.55;;;3.20;;
41721;SDS011;27407;24.142;-110.310;2023-10-13T02:39:18;23.88;;;3.97;;
41721;SDS011;27407;24.142;-110.310;2023-10-13T02:41:52;19.23;;;3.78;;
41721;SDS011;27407;24.142;-110.310;2023-10-13T02:44:21;17.33;;;3.08;;
41721;SDS011;27407;24.142;-110.310;2023-10-13T02:46:56;28.40;;;4.05;;
41721;SDS011;27407;24.142;-110.310;2023-10-13T02:49:25;14.10;;;2.88;;
41721;SDS011;27407;24.142;-110.310;2023-10-13T02:51:55;17.65;;;2.50;;
41721;SDS011;27407;24.142;-110.310;2023-10-13T02:54:24;15.90;;;2.70;;
41721;SDS011;27407;24.142;-110.310;2023-10-13T02:56:56;28.58;;;3.38;;
41721;SDS011;27407;24.142;-110.310;2023-10-13T02:59:25;15.85;;;2.72;;
41721;SDS011;27407;24.142;-110.310;2023-10-13T03:02:27;23.73;;;2.97;;
41721;SDS011;27407;24.142;-110.310;2023-10-13T03:04:55;13.20;;;2.63;;
41721;SDS011;27407;24.142;-110.310;2023-10-13T03:07:41;18.13;;;2.83;;
41721;SDS011;27407;24.142;-110.310;2023-10-13T03:10:09;17.73;;;3.17;;
41721;SDS011;27407;24.142;-110.310;2023-10-13T03:12:36;32.88;;;3.75;;
41721;SDS011;27407;24.142;-110.310;2023-10-13T03:15:06;22.35;;;2.13;;
41721;SDS011;27407;24.142;-110.310;2023-10-13T03:17:43;13.55;;;2.78;;
41721;SDS011;27407;24.142;-110.310;2023-10-13T03:20:11;20.70;;;3.30;;
41721;SDS011;27407;24.142;-110.310;2023-10-13T03:22:47;37.85;;;4.28;;
41721;SDS011;27407;24.142;-110.310;2023-10-13T03:25:17;29.58;;;4.07;;
41721;SDS011;27407;24.142;-110.310;2023-10-13T03:27:53;35.63;;;3.97;;
41721;SDS011;27407;24.142;-110.310;2023-10-13T03:30:21;9.50;;;1.88;;
41721;SDS011;27407;24.142;-110.310;2023-10-13T03:32:55;15.38;;;3.72;;
41721;SDS011;27407;24.142;-110.310;2023-10-13T03:35:22;17.83;;;2.28;;
41721;SDS011;27407;24.142;-110.310;2023-10-13T03:37:56;18.42;;;2.65;;
41721;SDS011;27407;24.142;-110.310;2023-10-13T03:40:23;23.65;;;3.60;;
41721;SDS011;27407;24.142;-110.310;2023-10-13T03:45:39;15.77;;;2.65;;
41721;SDS011;27407;24.142;-110.310;2023-10-13T03:48:10;15.90;;;2.72;;
41721;SDS011;27407;24.142;-110.310;2023-10-13T03:51:06;21.45;;;4.55;;
41721;SDS011;27407;24.142;-110.310;2023-10-13T03:53:36;20.25;;;3.22;;
41721;SDS011;27407;24.142;-110.310;2023-10-13T03:56:19;8.98;;;2.28;;
41721;SDS011;27407;24.142;-110.310;2023-10-13T03:58:56;13.20;;;2.03;;
41721;SDS011;27407;24.142;-110.310;2023-10-13T04:01:30;28.65;;;2.47;;
41721;SDS011;27407;24.142;-110.310;2023-10-13T04:03:58;19.95;;;2.40;;
41721;SDS011;27407;24.142;-110.310;2023-10-13T04:06:37;17.52;;;2.38;;
41721;SDS011;27407;24.142;-110.310;2023-10-13T04:09:17;21.45;;;3.08;;
41721;SDS011;27407;24.142;-110.310;2023-10-13T04:11:55;29.00;;;3.95;;
41721;SDS011;27407;24.142;-110.310;2023-10-13T04:17:22;11.98;;;2.50;;
41721;SDS011;27407;24.142;-110.310;2023-10-13T04:19:51;19.38;;;2.95;;
41721;SDS011;27407;24.142;-110.310;2023-10-13T04:22:37;12.75;;;3.17;;
41721;SDS011;27407;24.142;-110.310;2023-10-13T04:25:26;28.48;;;3.85;;
41721;SDS011;27407;24.142;-110.310;2023-10-13T04:28:12;17.05;;;2.97;;
41721;SDS011;27407;24.142;-110.310;2023-10-13T04:30:41;18.65;;;2.90;;
41721;SDS011;27407;24.142;-110.310;2023-10-13T04:33:14;10.30;;;1.95;;
41721;SDS011;27407;24.142;-110.310;2023-10-13T04:36:07;19.00;;;2.22;;
41721;SDS011;27407;24.142;-110.310;2023-10-13T04:38:47;12.73;;;2.33;;
41721;SDS011;27407;24.142;-110.310;2023-10-13T04:41:34;14.88;;;2.60;;
41721;SDS011;27407;24.142;-110.310;2023-10-13T04:44:09;12.90;;;2.17;;
41721;SDS011;27407;24.142;-110.310;2023-10-13T04:46:55;14.32;;;2.00;;
41721;SDS011;27407;24.142;-110.310;2023-10-13T04:49:29;13.77;;;1.80;;
41721;SDS011;27407;24.142;-110.310;2023-10-13T04:52:01;61.72;;;5.05;;
41721;SDS011;27407;24.142;-110.310;2023-10-13T04:54:36;8.00;;;1.75;;
41721;SDS011;27407;24.142;-110.310;2023-10-13T04:57:16;7.10;;;1.92;;
41721;SDS011;27407;24.142;-110.310;2023-10-13T05:00:06;13.43;;;2.00;;
41721;SDS011;27407;24.142;-110.310;2023-10-13T05:02:36;14.70;;;2.05;;
41721;SDS011;27407;24.142;-110.310;2023-10-13T05:05:10;14.18;;;2.65;;
41721;SDS011;27407;24.142;-110.310;2023-10-13T05:07:47;26.33;;;2.83;;
41721;SDS011;27407;24.142;-110.310;2023-10-13T05:10:33;11.10;;;2.42;;
41721;SDS011;27407;24.142;-110.310;2023-10-13T05:13:19;84.72;;;7.75;;
41721;SDS011;27407;24.142;-110.310;2023-10-13T05:16:03;36.53;;;3.58;;
41721;SDS011;27407;24.142;-110.310;2023-10-13T05:18:48;11.95;;;2.58;;
41721;SDS011;27407;24.142;-110.310;2023-10-13T05:21:33;23.35;;;3.17;;
41721;SDS011;27407;24.142;-110.310;2023-10-13T05:24:18;9.85;;;2.55;;
41721;SDS011;27407;24.142;-110.310;2023-10-13T05:27:03;11.82;;;2.60;;
41721;SDS011;27407;24.142;-110.310;2023-10-13T05:29:48;7.90;;;2.30;;
41721;SDS011;27407;24.142;-110.310;2023-10-13T05:32:33;11.35;;;2.42;;
41721;SDS011;27407;24.142;-110.310;2023-10-13T05:35:19;16.33;;;2.97;;
41721;SDS011;27407;24.142;-110.310;2023-10-13T05:38:04;17.02;;;2.60;;
41721;SDS011;27407;24.142;-110.310;2023-10-13T05:40:56;10.43;;;2.60;;
41721;SDS011;27407;24.142;-110.310;2023-10-13T05:43:42;9.00;;;2.55;;
41721;SDS011;27407;24.142;-110.310;2023-10-13T05:46:27;14.23;;;2.47;;
41721;SDS011;27407;24.142;-110.310;2023-10-13T05:49:03;11.18;;;2.60;;
41721;SDS011;27407;24.142;-110.310;2023-10-13T05:51:32;12.45;;;2.30;;
41721;SDS011;27407;24.142;-110.310;2023-10-13T05:54:02;13.85;;;3.45;;
41721;SDS011;27407;24.142;-110.310;2023-10-13T05:56:42;12.27;;;2.85;;
41721;SDS011;27407;24.142;-110.310;2023-10-13T05:59:28;14.25;;;2.78;;
41721;SDS011;27407;24.142;-110.310;2023-10-13T06:02:15;15.63;;;2.75;;
41721;SDS011;27407;24.142;-110.310;2023-10-13T06:05:15;10.27;;;2.97;;
41721;SDS011;27407;24.142;-110.310;2023-10-13T06:08:00;9.80;;;3.10;;
41721;SDS011;27407;24.142;-110.310;2023-10-13T06:10:44;16.30;;;2.65;;
41721;SDS011;27407;24.142;-110.310;2023-10-13T06:13:32;22.25;;;3.25;;
41721;SDS011;27407;24.142;-110.310;2023-10-13T06:16:17;15.32;;;2.65;;
41721;SDS011;27407;24.142;-110.310;2023-10-13T06:19:02;14.90;;;2.65;;
41721;SDS011;27407;24.142;-110.310;2023-10-13T06:21:47;13.98;;;2.72;;
41721;SDS011;27407;24.142;-110.310;2023-10-13T06:24:32;13.68;;;2.40;;
41721;SDS011;27407;24.142;-110.310;2023-10-13T06:27:17;11.65;;;2.33;;
41721;SDS011;27407;24.142;-110.310;2023-10-13T06:30:02;14.73;;;3.03;;
41721;SDS011;27407;24.142;-110.310;2023-10-13T06:32:32;11.88;;;3.10;;
41721;SDS011;27407;24.142;-110.310;2023-10-13T06:34:59;13.00;;;3.88;;
41721;SDS011;27407;24.142;-110.310;2023-10-13T06:37:48;13.05;;;3.35;;
41721;SDS011;27407;24.142;-110.310;2023-10-13T06:40:15;18.30;;;3.70;;
41721;SDS011;27407;24.142;-110.310;2023-10-13T06:42:54;13.23;;;2.60;;
41721;SDS011;27407;24.142;-110.310;2023-10-13T06:45:37;18.33;;;3.25;;
41721;SDS011;27407;24.142;-110.310;2023-10-13T06:48:04;15.35;;;3.78;;
41721;SDS011;27407;24.142;-110.310;2023-10-13T06:50:31;19.83;;;4.90;;
41721;SDS011;27407;24.142;-110.310;2023-10-13T06:53:04;14.90;;;4.15;;
41721;SDS011;27407;24.142;-110.310;2023-10-13T06:55:31;13.32;;;3.00;;
41721;SDS011;27407;24.142;-110.310;2023-10-13T06:58:01;19.80;;;3.15;;
41721;SDS011;27407;24.142;-110.310;2023-10-13T07:00:28;31.63;;;4.75;;
41721;SDS011;27407;24.142;-110.310;2023-10-13T07:02:54;15.35;;;2.78;;
41721;SDS011;27407;24.142;-110.310;2023-10-13T07:05:44;17.27;;;3.17;;
41721;SDS011;27407;24.142;-110.310;2023-10-13T07:08:14;13.07;;;2.72;;
41721;SDS011;27407;24.142;-110.310;2023-10-13T07:10:55;17.45;;;2.85;;
41721;SDS011;27407;24.142;-110.310;2023-10-13T07:13:28;13.52;;;2.72;;
41721;SDS011;27407;24.142;-110.310;2023-10-13T07:15:55;15.85;;;2.83;;
41721;SDS011;27407;24.142;-110.310;2023-10-13T07:18:37;12.75;;;2.78;;
41721;SDS011;27407;24.142;-110.310;2023-10-13T07:21:15;14.35;;;3.20;;
41721;SDS011;27407;24.142;-110.310;2023-10-13T07:23:42;12.95;;;2.80;;
41721;SDS011;27407;24.142;-110.310;2023-10-13T07:26:25;14.20;;;3.38;;
41721;SDS011;27407;24.142;-110.310;2023-10-13T07:28:54;13.00;;;2.90;;
41721;SDS011;27407;24.142;-110.310;2023-10-13T07:31:20;12.35;;;2.70;;
41721;SDS011;27407;24.142;-110.310;2023-10-13T07:33:52;19.15;;;4.05;;
41721;SDS011;27407;24.142;-110.310;2023-10-13T07:36:30;12.10;;;3.15;;
41721;SDS011;27407;24.142;-110.310;2023-10-13T07:39:04;14.45;;;2.92;;
41721;SDS011;27407;24.142;-110.310;2023-10-13T07:41:47;12.25;;;2.95;;
41721;SDS011;27407;24.142;-110.310;2023-10-13T07:44:20;15.23;;;2.90;;
41721;SDS011;27407;24.142;-110.310;2023-10-13T07:46:50;12.73;;;3.33;;
41721;SDS011;27407;24.142;-110.310;2023-10-13T07:49:35;22.90;;;3.85;;
41721;SDS011;27407;24.142;-110.310;2023-10-13T07:52:06;18.80;;;3.03;;
41721;SDS011;27407;24.142;-110.310;2023-10-13T07:55:00;17.60;;;3.17;;
41721;SDS011;27407;24.142;-110.310;2023-10-13T07:57:45;15.18;;;3.00;;
41721;SDS011;27407;24.142;-110.310;2023-10-13T08:00:22;15.98;;;3.67;;
41721;SDS011;27407;24.142;-110.310;2023-10-13T08:03:14;18.20;;;3.40;;
41721;SDS011;27407;24.142;-110.310;2023-10-13T08:05:44;10.57;;;2.85;;
41721;SDS011;27407;24.142;-110.310;2023-10-13T08:08:23;18.17;;;3.30;;
41721;SDS011;27407;24.142;-110.310;2023-10-13T08:11:10;15.93;;;3.38;;
41721;SDS011;27407;24.142;-110.310;2023-10-13T08:13:58;19.30;;;3.50;;
41721;SDS011;27407;24.142;-110.310;2023-10-13T08:16:46;12.02;;;3.35;;
41721;SDS011;27407;24.142;-110.310;2023-10-13T08:19:26;17.92;;;3.08;;
41721;SDS011;27407;24.142;-110.310;2023-10-13T08:21:59;14.55;;;3.53;;
41721;SDS011;27407;24.142;-110.310;2023-10-13T08:25:00;18.13;;;3.00;;
41721;SDS011;27407;24.142;-110.310;2023-10-13T08:28:01;12.40;;;3.35;;
41721;SDS011;27407;24.142;-110.310;2023-10-13T08:30:51;10.98;;;2.83;;
41721;SDS011;27407;24.142;-110.310;2023-10-13T08:33:18;14.80;;;2.47;;
41721;SDS011;27407;24.142;-110.310;2023-10-13T08:35:49;13.80;;;3.30;;
41721;SDS011;27407;24.142;-110.310;2023-10-13T08:38:41;17.48;;;3.35;;
41721;SDS011;27407;24.142;-110.310;2023-10-13T08:41:16;15.40;;;3.30;;
41721;SDS011;27407;24.142;-110.310;2023-10-13T08:43:50;14.75;;;3.15;;
41721;SDS011;27407;24.142;-110.310;2023-10-13T08:46:18;14.75;;;2.97;;
41721;SDS011;27407;24.142;-110.310;2023-10-13T08:48:55;17.52;;;3.13;;
41721;SDS011;27407;24.142;-110.310;2023-10-13T08:51:41;15.88;;;4.05;;
41721;SDS011;27407;24.142;-110.310;2023-10-13T08:54:15;12.77;;;2.70;;
41721;SDS011;27407;24.142;-110.310;2023-10-13T08:57:01;18.58;;;3.55;;
41721;SDS011;27407;24.142;-110.310;2023-10-13T09:00:08;12.30;;;3.42;;
41721;SDS011;27407;24.142;-110.310;2023-10-13T09:03:10;13.43;;;3.30;;
41721;SDS011;27407;24.142;-110.310;2023-10-13T09:05:54;16.50;;;3.85;;
41721;SDS011;27407;24.142;-110.310;2023-10-13T09:08:27;15.68;;;3.20;;
41721;SDS011;27407;24.142;-110.310;2023-10-13T09:11:31;19.73;;;4.00;;
41721;SDS011;27407;24.142;-110.310;2023-10-13T09:14:14;19.33;;;4.13;;
41721;SDS011;27407;24.142;-110.310;2023-10-13T09:17:02;20.15;;;3.40;;
41721;SDS011;27407;24.142;-110.310;2023-10-13T09:19:45;17.15;;;3.38;;
41721;SDS011;27407;24.142;-110.310;2023-10-13T09:22:27;11.48;;;2.63;;
41721;SDS011;27407;24.142;-110.310;2023-10-13T09:25:03;17.98;;;3.33;;
41721;SDS011;27407;24.142;-110.310;2023-10-13T09:27:31;19.67;;;2.90;;
41721;SDS011;27407;24.142;-110.310;2023-10-13T09:29:59;19.50;;;3.72;;
41721;SDS011;27407;24.142;-110.310;2023-10-13T09:32:35;13.35;;;3.88;;
41721;SDS011;27407;24.142;-110.310;2023-10-13T09:35:18;22.70;;;4.10;;
41721;SDS011;27407;24.142;-110.310;2023-10-13T09:37:49;13.80;;;3.40;;
41721;SDS011;27407;24.142;-110.310;2023-10-13T09:40:16;16.63;;;3.25;;
41721;SDS011;27407;24.142;-110.310;2023-10-13T09:43:01;14.88;;;3.80;;
41721;SDS011;27407;24.142;-110.310;2023-10-13T09:45:34;17.85;;;4.13;;
41721;SDS011;27407;24.142;-110.310;2023-10-13T09:48:07;13.43;;;2.83;;
41721;SDS011;27407;24.142;-110.310;2023-10-13T09:50:43;21.00;;;3.42;;
41721;SDS011;27407;24.142;-110.310;2023-10-13T09:53:13;15.57;;;3.15;;
41721;SDS011;27407;24.142;-110.310;2023-10-13T09:56:45;16.02;;;3.08;;
41721;SDS011;27407;24.142;-110.310;2023-10-13T09:59:24;17.08;;;3.28;;
41721;SDS011;27407;24.142;-110.310;2023-10-13T10:02:00;14.15;;;3.33;;
41721;SDS011;27407;24.142;-110.310;2023-10-13T10:04:51;16.77;;;3.30;;
41721;SDS011;27407;24.142;-110.310;2023-10-13T10:07:25;19.75;;;4.28;;
41721;SDS011;27407;24.142;-110.310;2023-10-13T10:09:58;25.40;;;3.45;;
41721;SDS011;27407;24.142;-110.310;2023-10-13T10:12:37;17.50;;;3.13;;
41721;SDS011;27407;24.142;-110.310;2023-10-13T10:18:21;18.08;;;3.38;;
41721;SDS011;27407;24.142;-110.310;2023-10-13T10:21:02;26.38;;;4.65;;
41721;SDS011;27407;24.142;-110.310;2023-10-13T10:23:33;15.02;;;3.38;;
41721;SDS011;27407;24.142;-110.310;2023-10-13T10:26:14;12.98;;;2.80;;
41721;SDS011;27407;24.142;-110.310;2023-10-13T10:28:45;14.07;;;3.45;;
41721;SDS011;27407;24.142;-110.310;2023-10-13T10:31:13;15.68;;;3.22;;
41721;SDS011;27407;24.142;-110.310;2023-10-13T10:33:42;17.48;;;3.30;;
41721;SDS011;27407;24.142;-110.310;2023-10-13T10:36:10;17.52;;;3.42;;
41721;SDS011;27407;24.142;-110.310;2023-10-13T10:41:40;12.00;;;3.20;;
41721;SDS011;27407;24.142;-110.310;2023-10-13T10:44:13;12.30;;;3.35;;
41721;SDS011;27407;24.142;-110.310;2023-10-13T10:47:12;18.98;;;3.75;;
41721;SDS011;27407;24.142;-110.310;2023-10-13T10:50:05;17.08;;;3.65;;
41721;SDS011;27407;24.142;-110.310;2023-10-13T10:52:45;20.92;;;4.13;;
41721;SDS011;27407;24.142;-110.310;2023-10-13T10:55:12;16.75;;;3.13;;
41721;SDS011;27407;24.142;-110.310;2023-10-13T10:57:45;15.52;;;3.25;;
41721;SDS011;27407;24.142;-110.310;2023-10-13T11:00:20;15.98;;;3.35;;
41721;SDS011;27407;24.142;-110.310;2023-10-13T11:02:56;10.88;;;2.90;;
41721;SDS011;27407;24.142;-110.310;2023-10-13T11:05:23;13.40;;;3.17;;
41721;SDS011;27407;24.142;-110.310;2023-10-13T11:07:58;13.02;;;2.63;;
41721;SDS011;27407;24.142;-110.310;2023-10-13T11:10:24;13.93;;;2.95;;
41721;SDS011;27407;24.142;-110.310;2023-10-13T11:12:56;11.48;;;3.30;;
41721;SDS011;27407;24.142;-110.310;2023-10-13T11:15:47;15.50;;;3.28;;
41721;SDS011;27407;24.142;-110.310;2023-10-13T11:18:13;18.60;;;3.00;;
41721;SDS011;27407;24.142;-110.310;2023-10-13T11:20:47;14.82;;;3.28;;
41721;SDS011;27407;24.142;-110.310;2023-10-13T11:23:19;19.60;;;3.08;;
41721;SDS011;27407;24.142;-110.310;2023-10-13T11:25:57;14.05;;;2.97;;
41721;SDS011;27407;24.142;-110.310;2023-10-13T11:28:28;17.60;;;3.40;;
41721;SDS011;27407;24.142;-110.310;2023-10-13T11:30:57;16.38;;;3.30;;
41721;SDS011;27407;24.142;-110.310;2023-10-13T11:33:25;15.95;;;3.42;;
41721;SDS011;27407;24.142;-110.310;2023-10-13T11:35:55;11.70;;;2.92;;
41721;SDS011;27407;24.142;-110.310;2023-10-13T11:38:26;14.40;;;3.97;;
41721;SDS011;27407;24.142;-110.310;2023-10-13T11:41:00;18.33;;;3.95;;
41721;SDS011;27407;24.142;-110.310;2023-10-13T11:43:37;14.95;;;3.17;;
41721;SDS011;27407;24.142;-110.310;2023-10-13T11:48:36;15.18;;;2.90;;
41721;SDS011;27407;24.142;-110.310;2023-10-13T11:51:08;14.80;;;3.15;;
41721;SDS011;27407;24.142;-110.310;2023-10-13T11:53:56;16.88;;;3.22;;
41721;SDS011;27407;24.142;-110.310;2023-10-13T11:56:23;19.98;;;3.60;;
41721;SDS011;27407;24.142;-110.310;2023-10-13T11:58:51;15.05;;;3.20;;
41721;SDS011;27407;24.142;-110.310;2023-10-13T12:01:17;26.95;;;4.38;;
41721;SDS011;27407;24.142;-110.310;2023-10-13T12:03:44;31.30;;;4.57;;
41721;SDS011;27407;24.142;-110.310;2023-10-13T12:06:32;24.55;;;3.78;;
41721;SDS011;27407;24.142;-110.310;2023-10-13T12:09:02;14.05;;;3.15;;
41721;SDS011;27407;24.142;-110.310;2023-10-13T12:11:45;26.27;;;3.50;;
41721;SDS011;27407;24.142;-110.310;2023-10-13T12:14:14;14.45;;;3.28;;
41721;SDS011;27407;24.142;-110.310;2023-10-13T12:16:53;16.05;;;2.75;;
41721;SDS011;27407;24.142;-110.310;2023-10-13T12:19:23;20.20;;;3.25;;
41721;SDS011;27407;24.142;-110.310;2023-10-13T12:21:55;10.48;;;2.53;;
41721;SDS011;27407;24.142;-110.310;2023-10-13T12:24:23;13.02;;;3.33;;
41721;SDS011;27407;24.142;-110.310;2023-10-13T12:27:03;16.27;;;3.05;;
41721;SDS011;27407;24.142;-110.310;2023-10-13T12:29:51;16.10;;;3.40;;
41721;SDS011;27407;24.142;-110.310;2023-10-13T12:32:22;14.45;;;2.95;;
41721;SDS011;27407;24.142;-110.310;2023-10-13T12:34:56;15.50;;;3.22;;
41721;SDS011;27407;24.142;-110.310;2023-10-13T12:37:26;13.77;;;2.83;;
41721;SDS011;27407;24.142;-110.310;2023-10-13T12:40:15;15.43;;;3.10;;
41721;SDS011;27407;24.142;-110.310;2023-10-13T12:43:02;22.77;;;3.83;;
41721;SDS011;27407;24.142;-110.310;2023-10-13T12:45:48;23.10;;;2.85;;
41721;SDS011;27407;24.142;-110.310;2023-10-13T12:48:34;14.93;;;3.28;;
41721;SDS011;27407;24.142;-110.310;2023-10-13T12:51:39;42.08;;;4.75;;
41721;SDS011;27407;24.142;-110.310;2023-10-13T12:54:15;45.88;;;5.45;;
41721;SDS011;27407;24.142;-110.310;2023-10-13T12:56:48;39.20;;;4.65;;
41721;SDS011;27407;24.142;-110.310;2023-10-13T12:59:22;24.38;;;3.72;;
41721;SDS011;27407;24.142;-110.310;2023-10-13T13:01:52;34.50;;;5.05;;
41721;SDS011;27407;24.142;-110.310;2023-10-13T13:04:19;88.65;;;7.90;;
41721;SDS011;27407;24.142;-110.310;2023-10-13T13:06:57;40.97;;;4.20;;
41721;SDS011;27407;24.142;-110.310;2023-10-13T13:09:23;37.75;;;3.70;;
41721;SDS011;27407;24.142;-110.310;2023-10-13T13:11:53;29.85;;;3.42;;
41721;SDS011;27407;24.142;-110.310;2023-10-13T13:14:24;26.80;;;4.15;;
41721;SDS011;27407;24.142;-110.310;2023-10-13T13:16:59;46.85;;;5.65;;
41721;SDS011;27407;24.142;-110.310;2023-10-13T13:22:06;28.85;;;3.85;;
41721;SDS011;27407;24.142;-110.310;2023-10-13T13:24:41;35.40;;;5.05;;
41721;SDS011;27407;24.142;-110.310;2023-10-13T13:27:16;33.85;;;3.88;;
41721;SDS011;27407;24.142;-110.310;2023-10-13T13:29:45;30.67;;;4.32;;
41721;SDS011;27407;24.142;-110.310;2023-10-13T13:32:12;36.47;;;4.55;;
41721;SDS011;27407;24.142;-110.310;2023-10-13T13:34:52;66.07;;;6.68;;
41721;SDS011;27407;24.142;-110.310;2023-10-13T13:37:33;65.70;;;7.07;;
41721;SDS011;27407;24.142;-110.310;2023-10-13T13:40:05;47.97;;;5.85;;
41721;SDS011;27407;24.142;-110.310;2023-10-13T13:42:40;39.58;;;5.70;;
41721;SDS011;27407;24.142;-110.310;2023-10-13T13:45:14;46.22;;;5.03;;
41721;SDS011;27407;24.142;-110.310;2023-10-13T13:48:02;39.45;;;4.95;;
41721;SDS011;27407;24.142;-110.310;2023-10-13T13:50:33;53.13;;;5.72;;
41721;SDS011;27407;24.142;-110.310;2023-10-13T13:53:06;86.53;;;8.27;;
41721;SDS011;27407;24.142;-110.310;2023-10-13T13:55:35;71.32;;;7.00;;
41721;SDS011;27407;24.142;-110.310;2023-10-13T13:58:05;33.60;;;5.60;;
41721;SDS011;27407;24.142;-110.310;2023-10-13T14:00:34;42.10;;;5.10;;
41721;SDS011;27407;24.142;-110.310;2023-10-13T14:03:06;32.60;;;4.50;;
41721;SDS011;27407;24.142;-110.310;2023-10-13T14:05:44;57.70;;;5.32;;
41721;SDS011;27407;24.142;-110.310;2023-10-13T14:08:10;46.50;;;4.95;;
41721;SDS011;27407;24.142;-110.310;2023-10-13T14:10:39;45.97;;;5.32;;
41721;SDS011;27407;24.142;-110.310;2023-10-13T14:13:24;35.95;;;5.20;;
41721;SDS011;27407;24.142;-110.310;2023-10-13T14:16:09;84.93;;;7.75;;
41721;SDS011;27407;24.142;-110.310;2023-10-13T14:21:13;35.22;;;4.40;;
41721;SDS011;27407;24.142;-110.310;2023-10-13T14:23:50;85.60;;;6.68;;
41721;SDS011;27407;24.142;-110.310;2023-10-13T14:26:20;118.63;;;11.38;;
41721;SDS011;27407;24.142;-110.310;2023-10-13T14:28:54;342.83;;;18.83;;
41721;SDS011;27407;24.142;-110.310;2023-10-13T14:31:31;97.70;;;8.85;;
41721;SDS011;27407;24.142;-110.310;2023-10-13T14:34:07;64.25;;;6.60;;
41721;SDS011;27407;24.142;-110.310;2023-10-13T14:36:34;32.63;;;4.57;;
41721;SDS011;27407;24.142;-110.310;2023-10-13T14:39:01;25.73;;;4.70;;
41721;SDS011;27407;24.142;-110.310;2023-10-13T14:41:28;24.73;;;4.47;;
41721;SDS011;27407;24.142;-110.310;2023-10-13T14:44:02;69.25;;;6.97;;
41721;SDS011;27407;24.142;-110.310;2023-10-13T14:46:33;33.03;;;4.28;;
41721;SDS011;27407;24.142;-110.310;2023-10-13T14:49:05;71.03;;;5.70;;
41721;SDS011;27407;24.142;-110.310;2023-10-13T14:51:32;49.42;;;5.90;;
41721;SDS011;27407;24.142;-110.310;2023-10-13T14:54:07;41.85;;;4.30;;
41721;SDS011;27407;24.142;-110.310;2023-10-13T14:56:37;73.97;;;7.63;;
41721;SDS011;27407;24.142;-110.310;2023-10-13T14:59:05;27.83;;;4.85;;
41721;SDS011;27407;24.142;-110.310;2023-10-13T15:01:42;30.08;;;4.05;;
41721;SDS011;27407;24.142;-110.310;2023-10-13T15:04:15;39.20;;;5.03;;
41721;SDS011;27407;24.142;-110.310;2023-10-13T15:06:42;33.83;;;4.32;;
41721;SDS011;27407;24.142;-110.310;2023-10-13T15:09:20;35.20;;;4.15;;